Wilsondale, West Virginia
Current Conditions -  °F | °C
As of 8:35 PM on Tuesday 27 Jan 2015 (Local Time) from KSJS Reporting Station
Clear Clear  
Wind Chill: 17°   Ceiling: Unl
Heat Index: 24°   Visibility: 10mi
Dew Point: 15°   Wind: 6mph
Humidity: 69%   Direction: 30°NNE
Pressure: 30.14"   Gusts: NA
Location:  37.95°N, 82.33°W
Report Text: KSJS 280135Z AUTO 03005KT 10SM CLR M05/M09 A3014 RMK AO2 T10461095
Loading
Personal Weather Stations






























Interactive Weather Map New forecast layout! Learn more

10-Day Weather Forecast

Advertisements
Track Severe Weather on mobile